Time;durP1;ratioP1;P1;durP2;ratioP2;P2;SDS_P1;SDS_P2;PMS_P1;PMS_P2;Temp;Humidity;BMP_temperature;BMP_pressure;BME280_temperature;BME280_humidity;BME280_pressure;Samples;Min_cycle;Max_cycle;Signal;HPM_P1;HPM_P2
2023/04/18 00:00:14;;;;;;;5.32;2.63;;;17.90;76.40;;;;;;4892729;29;45409;-73
2023/04/18 00:02:42;;;;;;;5.20;2.50;;;17.90;76.40;;;;;;4891907;29;45228;-73
2023/04/18 00:05:11;;;;;;;3.72;2.58;;;17.90;76.00;;;;;;4892306;29;45306;-73
2023/04/18 00:07:38;;;;;;;3.85;2.38;;;17.90;75.40;;;;;;4892405;29;45133;-73
2023/04/18 00:10:06;;;;;;;4.68;2.60;;;17.90;74.90;;;;;;4892774;29;45110;-73
2023/04/18 00:12:35;;;;;;;4.55;2.60;;;17.90;74.70;;;;;;4892220;29;47064;-73
2023/04/18 00:15:02;;;;;;;3.70;2.40;;;17.90;74.50;;;;;;4892117;29;45241;-73
2023/04/18 00:17:29;;;;;;;3.00;2.13;;;17.90;73.90;;;;;;4892170;29;45327;-73
2023/04/18 00:20:01;;;;;;;4.28;2.38;;;17.90;74.10;;;;;;4892421;29;45350;-73
2023/04/18 00:22:27;;;;;;;3.45;2.28;;;17.90;73.70;;;;;;4891440;29;46820;-73
2023/04/18 00:24:54;;;;;;;4.13;2.30;;;17.90;73.30;;;;;;4892246;29;45093;-73
2023/04/18 00:27:21;;;;;;;3.47;2.42;;;17.90;73.60;;;;;;4891984;29;45206;-73
2023/04/18 00:29:48;;;;;;;2.92;2.20;;;17.90;74.70;;;;;;4892033;29;45689;-73
2023/04/18 00:32:15;;;;;;;3.97;2.42;;;17.90;75.10;;;;;;4892132;29;47269;-73
2023/04/18 00:34:42;;;;;;;2.78;2.03;;;17.90;75.00;;;;;;4891747;29;45752;-73
2023/04/18 00:37:10;;;;;;;4.97;2.60;;;17.90;75.00;;;;;;4892416;29;45189;-72
2023/04/18 00:39:37;;;;;;;5.63;2.60;;;17.90;74.90;;;;;;4892150;29;45160;-73
2023/04/18 00:42:04;;;;;;;4.20;2.47;;;17.90;74.50;;;;;;4894310;29;46486;-73
2023/04/18 00:44:31;;;;;;;3.58;2.42;;;17.90;74.70;;;;;;4892170;29;45436;-73
2023/04/18 00:46:58;;;;;;;2.67;2.10;;;17.90;73.80;;;;;;4891671;29;45140;-73
2023/04/18 00:49:26;;;;;;;4.07;2.40;;;17.80;73.20;;;;;;4891853;29;45546;-73
2023/04/18 00:51:54;;;;;;;3.47;2.30;;;17.80;73.10;;;;;;4891763;29;46429;-73
2023/04/18 00:54:24;;;;;;;3.53;2.33;;;17.80;72.90;;;;;;4892014;29;45414;-73
2023/04/18 00:56:51;;;;;;;3.83;2.40;;;17.80;71.30;;;;;;4892029;29;45108;-73
2023/04/18 00:59:18;;;;;;;3.80;2.63;;;17.80;71.70;;;;;;4891702;29;45429;-73
2023/04/18 01:01:45;;;;;;;5.88;2.45;;;17.80;71.70;;;;;;4890987;29;46619;-73
2023/04/18 01:04:11;;;;;;;3.88;2.50;;;17.80;71.30;;;;;;4891493;29;45125;-73
2023/04/18 01:06:39;;;;;;;3.50;2.50;;;17.80;71.30;;;;;;4891408;29;45193;-73
2023/04/18 01:09:06;;;;;;;5.57;2.90;;;17.80;71.10;;;;;;4891758;29;45239;-73
2023/04/18 01:11:34;;;;;;;6.82;2.70;;;17.80;71.20;;;;;;4891663;29;45306;-73
2023/04/18 01:14:03;;;;;;;4.50;2.40;;;17.80;72.50;;;;;;4891779;29;45173;-73
2023/04/18 01:16:32;;;;;;;3.25;2.35;;;17.90;73.20;;;;;;4891332;29;45283;-73
2023/04/18 01:18:58;;;;;;;3.88;2.35;;;17.90;73.10;;;;;;4891690;29;45700;-73
2023/04/18 01:21:30;;;;;;;5.38;2.58;;;17.90;73.10;;;;;;4891228;29;46519;-73
2023/04/18 01:24:01;;;;;;;5.25;2.40;;;17.90;73.40;;;;;;4891602;29;45589;-73
2023/04/18 01:26:30;;;;;;;5.88;2.35;;;17.90;73.30;;;;;;4888423;29;45214;-73
2023/04/18 01:28:56;;;;;;;3.20;2.45;;;17.90;73.10;;;;;;4891735;29;45221;-73
2023/04/18 01:31:23;;;;;;;3.70;2.40;;;17.90;73.00;;;;;;4890896;29;45726;-73
2023/04/18 01:33:50;;;;;;;3.40;2.47;;;17.90;72.90;;;;;;4891011;29;45211;-73
2023/04/18 01:36:16;;;;;;;3.75;2.47;;;17.90;72.50;;;;;;4892783;29;45129;-73
2023/04/18 01:38:43;;;;;;;3.30;2.53;;;17.80;71.90;;;;;;4891418;29;45430;-73
2023/04/18 01:41:10;;;;;;;5.43;2.45;;;17.90;71.90;;;;;;4890746;29;46507;-73
2023/04/18 01:43:38;;;;;;;3.72;2.22;;;17.80;71.60;;;;;;4890852;29;45228;-73
2023/04/18 01:46:05;;;;;;;4.47;2.40;;;17.80;71.00;;;;;;4891061;29;45189;-73
2023/04/18 01:48:32;;;;;;;3.08;2.30;;;17.80;71.00;;;;;;4891312;29;45698;-73
2023/04/18 01:50:59;;;;;;;3.83;2.38;;;17.80;70.80;;;;;;4890546;29;46692;-73
2023/04/18 01:53:26;;;;;;;3.13;2.45;;;17.80;70.40;;;;;;4891029;29;45186;-73
2023/04/18 01:55:52;;;;;;;3.50;2.33;;;17.80;70.60;;;;;;4891031;29;45247;-73
2023/04/18 01:58:22;;;;;;;3.03;2.28;;;17.80;71.60;;;;;;4891084;29;45580;-73
2023/04/18 02:00:51;;;;;;;2.47;2.17;;;17.80;72.40;;;;;;4890509;29;47234;-73
2023/04/18 02:03:18;;;;;;;4.70;2.55;;;17.80;72.50;;;;;;4890427;29;45443;-73
2023/04/18 02:05:45;;;;;;;3.60;2.50;;;17.90;72.70;;;;;;4890666;29;45207;-73
2023/04/18 02:08:11;;;;;;;2.85;2.40;;;17.90;72.60;;;;;;4890572;29;45619;-73
2023/04/18 02:10:38;;;;;;;4.72;2.40;;;17.90;72.40;;;;;;4890387;29;45222;-73
2023/04/18 02:13:06;;;;;;;4.57;2.53;;;17.90;72.50;;;;;;4890359;29;45631;-73
2023/04/18 02:15:33;;;;;;;5.10;2.58;;;17.90;72.20;;;;;;4891059;29;45212;-72
2023/04/18 02:18:01;;;;;;;5.13;2.70;;;17.90;72.10;;;;;;4891040;29;45308;-73
2023/04/18 02:20:30;;;;;;;3.78;2.30;;;17.80;71.80;;;;;;4890315;29;45369;-73
2023/04/18 02:22:57;;;;;;;3.15;2.40;;;17.90;71.40;;;;;;4890941;29;45276;-73
2023/04/18 02:25:26;;;;;;;3.33;2.20;;;17.80;71.10;;;;;;4890852;29;45169;-73
2023/04/18 02:27:53;;;;;;;3.78;2.40;;;17.80;70.60;;;;;;4893274;29;45343;-72
2023/04/18 02:30:20;;;;;;;4.38;2.70;;;17.90;70.70;;;;;;4890381;29;47333;-73
2023/04/18 02:32:47;;;;;;;4.43;2.45;;;17.80;70.50;;;;;;4890364;29;45698;-73
2023/04/18 02:35:15;;;;;;;2.92;1.95;;;17.80;70.10;;;;;;4890457;29;45255;-73
2023/04/18 02:37:42;;;;;;;3.42;2.28;;;17.80;70.00;;;;;;4890495;29;45192;-73
2023/04/18 02:40:09;;;;;;;2.90;2.15;;;17.80;70.10;;;;;;4890227;29;46596;-73
2023/04/18 02:42:36;;;;;;;3.67;2.40;;;17.80;70.80;;;;;;4890219;29;45271;-73
2023/04/18 02:45:03;;;;;;;4.55;2.35;;;17.80;71.30;;;;;;4890220;29;45184;-73
2023/04/18 02:47:30;;;;;;;3.90;2.40;;;17.90;72.00;;;;;;4890272;29;45498;-73
2023/04/18 02:49:57;;;;;;;2.50;2.10;;;17.90;71.90;;;;;;4889769;29;46294;-73
2023/04/18 02:52:25;;;;;;;4.43;2.17;;;17.90;71.90;;;;;;4890091;29;45141;-73
2023/04/18 02:54:52;;;;;;;3.00;2.42;;;17.90;72.00;;;;;;4890504;29;45140;-73
2023/04/18 02:57:19;;;;;;;4.30;2.42;;;17.90;71.70;;;;;;4890235;29;45155;-73
2023/04/18 02:59:45;;;;;;;4.15;2.45;;;17.90;72.00;;;;;;4890078;29;46650;-73
2023/04/18 03:02:12;;;;;;;2.55;2.03;;;17.90;71.60;;;;;;4889544;29;45348;-73
2023/04/18 03:04:39;;;;;;;4.05;2.53;;;17.90;71.20;;;;;;4890117;29;45309;-73
2023/04/18 03:07:06;;;;;;;2.95;2.58;;;17.90;70.50;;;;;;4889738;29;45445;-73
2023/04/18 03:09:35;;;;;;;3.97;2.45;;;17.90;70.60;;;;;;4889826;29;48354;-73
2023/04/18 03:12:02;;;;;;;2.75;2.28;;;17.90;70.50;;;;;;4889541;29;45248;-73
2023/04/18 03:14:29;;;;;;;2.70;1.88;;;17.90;70.20;;;;;;4889985;29;45193;-73
2023/04/18 03:16:56;;;;;;;3.05;2.45;;;17.80;70.50;;;;;;4889989;29;45417;-73
2023/04/18 03:19:23;;;;;;;2.97;2.35;;;17.80;70.00;;;;;;4892282;29;45500;-74
2023/04/18 03:21:50;;;;;;;2.97;2.20;;;17.80;70.10;;;;;;4889862;29;45228;-73
2023/04/18 03:24:16;;;;;;;2.30;1.90;;;17.80;70.50;;;;;;4889856;29;45238;-73
2023/04/18 03:26:45;;;;;;;3.42;2.28;;;17.80;70.80;;;;;;4889554;29;45247;-73
2023/04/18 03:29:11;;;;;;;4.72;2.10;;;17.80;71.40;;;;;;4889526;29;45411;-72
2023/04/18 03:31:40;;;;;;;3.83;2.38;;;17.80;71.60;;;;;;4889632;29;45420;-73
2023/04/18 03:34:06;;;;;;;3.17;2.13;;;17.80;71.50;;;;;;4889630;29;45221;-73
2023/04/18 03:36:33;;;;;;;3.72;2.10;;;17.80;71.40;;;;;;4889929;29;45312;-73
2023/04/18 03:39:01;;;;;;;3.10;1.95;;;17.80;71.60;;;;;;4889575;29;45172;-73
2023/04/18 03:41:28;;;;;;;3.47;2.45;;;17.80;71.50;;;;;;4889681;29;45344;-73
2023/04/18 03:43:56;;;;;;;4.40;2.42;;;17.80;71.50;;;;;;4889855;29;45199;-73
2023/04/18 03:46:23;;;;;;;3.53;2.45;;;17.80;71.30;;;;;;4889598;29;45361;-73
2023/04/18 03:48:50;;;;;;;2.20;1.92;;;17.80;71.00;;;;;;4889535;29;47895;-73
2023/04/18 03:51:17;;;;;;;5.43;2.30;;;17.80;71.00;;;;;;4889340;29;45115;-73
2023/04/18 03:53:44;;;;;;;3.10;2.45;;;17.80;70.60;;;;;;4889596;29;45235;-73
2023/04/18 03:56:11;;;;;;;2.90;2.30;;;17.80;70.50;;;;;;4889887;29;45164;-73
2023/04/18 03:58:37;;;;;;;2.20;1.88;;;17.80;70.20;;;;;;4892637;29;46470;-73
2023/04/18 04:01:06;;;;;;;3.03;2.10;;;17.80;70.20;;;;;;4892569;29;45119;-73
2023/04/18 04:03:33;;;;;;;2.65;1.98;;;17.80;69.50;;;;;;4892192;29;45172;-73
2023/04/18 04:06:00;;;;;;;3.17;2.20;;;17.80;69.50;;;;;;4892231;29;45428;-73
2023/04/18 04:08:27;;;;;;;4.75;2.33;;;17.80;69.60;;;;;;4892366;29;47147;-73
2023/04/18 04:10:53;;;;;;;2.88;2.17;;;17.80;69.50;;;;;;4892143;29;45171;-73
2023/04/18 04:13:20;;;;;;;3.50;2.15;;;17.80;70.10;;;;;;4894815;29;45245;-73
2023/04/18 04:15:47;;;;;;;3.00;2.10;;;17.80;70.50;;;;;;4892426;29;45273;-73
2023/04/18 04:18:15;;;;;;;2.58;2.13;;;17.80;70.60;;;;;;4892362;29;46899;-73
2023/04/18 04:20:42;;;;;;;2.65;2.03;;;17.80;70.80;;;;;;4892242;29;45212;-73
2023/04/18 04:23:08;;;;;;;2.95;2.15;;;17.80;70.80;;;;;;4892546;29;45224;-73
2023/04/18 04:25:37;;;;;;;3.03;2.10;;;17.80;70.50;;;;;;4892394;29;45458;-73
2023/04/18 04:28:05;;;;;;;2.65;2.05;;;17.80;70.60;;;;;;4892128;29;47294;-73
2023/04/18 04:30:32;;;;;;;2.97;2.03;;;17.80;70.50;;;;;;4892213;29;45357;-73
2023/04/18 04:33:00;;;;;;;2.42;1.90;;;17.80;70.40;;;;;;4892075;29;45179;-73
2023/04/18 04:35:28;;;;;;;3.33;2.45;;;17.80;70.00;;;;;;4892305;29;45630;-73
2023/04/18 04:37:55;;;;;;;4.07;1.88;;;17.80;69.60;;;;;;4891953;29;48228;-73
2023/04/18 04:40:22;;;;;;;3.17;2.05;;;17.80;69.10;;;;;;4891946;29;45254;-73
2023/04/18 04:42:52;;;;;;;2.92;2.28;;;17.80;68.70;;;;;;4891767;29;45240;-73
2023/04/18 04:45:19;;;;;;;2.70;2.00;;;17.80;68.60;;;;;;4891817;29;45232;-73
2023/04/18 04:47:46;;;;;;;6.13;1.95;;;17.80;68.30;;;;;;4891667;29;46168;-73
2023/04/18 04:50:14;;;;;;;3.50;2.15;;;17.80;68.40;;;;;;4891804;29;45241;-73
2023/04/18 04:52:43;;;;;;;3.25;2.40;;;17.80;68.10;;;;;;4891778;29;45235;-73
2023/04/18 04:55:10;;;;;;;4.85;1.90;;;17.80;68.20;;;;;;4892046;29;45401;-73
2023/04/18 04:57:37;;;;;;;3.30;2.10;;;17.80;69.20;;;;;;4891666;29;45476;-73
2023/04/18 05:00:06;;;;;;;3.13;2.00;;;17.80;69.60;;;;;;4891450;29;45186;-73
2023/04/18 05:02:33;;;;;;;3.33;2.00;;;17.80;69.80;;;;;;4891373;29;45169;-73
2023/04/18 05:05:00;;;;;;;3.40;2.20;;;17.80;69.70;;;;;;4894266;29;45192;-73
2023/04/18 05:07:27;;;;;;;2.97;2.00;;;17.80;69.90;;;;;;4891535;29;46719;-73
2023/04/18 05:09:55;;;;;;;2.58;2.00;;;17.80;70.00;;;;;;4890309;29;45220;-73
2023/04/18 05:12:21;;;;;;;2.80;2.00;;;17.80;69.90;;;;;;4891349;29;45216;-73
2023/04/18 05:14:48;;;;;;;3.10;2.00;;;17.80;69.80;;;;;;4891507;29;45271;-73
2023/04/18 05:17:15;;;;;;;2.72;1.90;;;17.80;69.80;;;;;;4891365;29;45303;-73
2023/04/18 05:19:42;;;;;;;2.53;1.95;;;17.80;69.50;;;;;;4891657;29;45204;-73
2023/04/18 05:22:09;;;;;;;2.22;1.65;;;17.80;69.60;;;;;;4891959;29;45272;-73
2023/04/18 05:24:36;;;;;;;2.42;2.03;;;17.80;69.50;;;;;;4891305;29;45509;-72
2023/04/18 05:27:05;;;;;;;2.67;2.00;;;17.80;69.40;;;;;;4890931;29;47058;-73
2023/04/18 05:29:31;;;;;;;2.58;1.83;;;17.80;69.40;;;;;;4891230;29;45220;-73
2023/04/18 05:31:58;;;;;;;2.30;1.75;;;17.80;69.10;;;;;;4891104;29;45449;-73
2023/04/18 05:34:25;;;;;;;4.97;2.00;;;17.80;68.90;;;;;;4891070;29;45569;-73
2023/04/18 05:36:52;;;;;;;2.00;1.70;;;17.80;68.50;;;;;;4888916;29;46338;-72
2023/04/18 05:39:19;;;;;;;2.67;1.80;;;17.80;69.10;;;;;;4891266;29;45367;-73
2023/04/18 05:41:45;;;;;;;3.13;2.05;;;17.80;69.40;;;;;;4891161;29;45205;-73
2023/04/18 05:44:14;;;;;;;2.22;1.90;;;17.80;69.00;;;;;;4891279;29;45594;-73
2023/04/18 05:46:41;;;;;;;2.40;2.00;;;17.80;68.80;;;;;;4890996;29;47174;-73
2023/04/18 05:49:08;;;;;;;3.28;2.20;;;17.80;68.40;;;;;;4891263;29;45231;-73
2023/04/18 05:51:35;;;;;;;3.08;2.00;;;17.80;68.20;;;;;;4891130;29;45324;-73
2023/04/18 05:54:03;;;;;;;2.83;1.80;;;17.80;68.10;;;;;;4891382;29;45287;-73
2023/04/18 05:56:30;;;;;;;2.92;1.83;;;17.80;68.20;;;;;;4890916;29;46371;-73
2023/04/18 05:58:56;;;;;;;2.30;1.92;;;17.80;68.00;;;;;;4893608;29;45227;-73
2023/04/18 06:01:25;;;;;;;2.55;2.10;;;17.80;67.40;;;;;;4890948;29;45161;-73
2023/04/18 06:03:51;;;;;;;2.35;1.88;;;17.80;66.60;;;;;;4890697;29;45238;-73
2023/04/18 06:06:18;;;;;;;2.38;2.10;;;17.70;67.30;;;;;;4890449;29;47547;-73
2023/04/18 06:08:45;;;;;;;3.35;2.25;;;17.70;66.80;;;;;;4890830;29;45229;-73
2023/04/18 06:11:13;;;;;;;2.90;2.20;;;17.70;67.00;;;;;;4890834;29;45125;-74
2023/04/18 06:13:40;;;;;;;2.85;2.22;;;17.70;66.80;;;;;;4891025;29;45384;-74
2023/04/18 06:16:07;;;;;;;2.90;2.17;;;17.70;67.10;;;;;;4890488;29;47112;-73
2023/04/18 06:18:35;;;;;;;4.25;2.60;;;17.70;67.00;;;;;;4890556;29;45178;-74
2023/04/18 06:21:02;;;;;;;3.60;2.40;;;17.70;67.20;;;;;;4889964;29;45339;-74
2023/04/18 06:23:29;;;;;;;4.47;2.40;;;17.70;67.10;;;;;;4889367;29;45495;-73
2023/04/18 06:25:56;;;;;;;4.50;2.65;;;17.70;67.10;;;;;;4890185;29;46422;-73
2023/04/18 06:28:23;;;;;;;4.65;2.70;;;17.70;66.90;;;;;;4890131;29;45390;-74
2023/04/18 06:30:50;;;;;;;3.95;2.40;;;17.70;67.00;;;;;;4890870;29;45251;-73
2023/04/18 06:33:17;;;;;;;4.25;2.42;;;17.70;67.00;;;;;;4890871;29;45136;-73
2023/04/18 06:35:45;;;;;;;4.50;2.70;;;17.70;66.90;;;;;;4889992;29;45311;-73
2023/04/18 06:38:12;;;;;;;4.15;2.40;;;17.70;66.80;;;;;;4890097;29;45183;-73
2023/04/18 06:40:39;;;;;;;4.72;2.72;;;17.70;66.80;;;;;;4890415;29;45253;-72
2023/04/18 06:43:06;;;;;;;3.28;2.33;;;17.70;66.90;;;;;;4890803;29;45574;-72
2023/04/18 06:45:33;;;;;;;5.20;2.65;;;17.80;66.80;;;;;;4889888;29;48187;-72
2023/04/18 06:48:02;;;;;;;2.60;2.05;;;17.80;67.10;;;;;;4889954;29;45168;-72
2023/04/18 06:50:29;;;;;;;4.03;2.22;;;17.80;67.00;;;;;;4892158;29;45291;-72
2023/04/18 06:52:57;;;;;;;4.75;2.58;;;17.80;67.30;;;;;;4890744;29;45129;-72
2023/04/18 06:55:24;;;;;;;5.05;2.80;;;17.80;67.30;;;;;;4890043;29;47854;-72
2023/04/18 06:57:51;;;;;;;3.17;2.67;;;17.80;67.30;;;;;;4890020;29;45159;-72
2023/04/18 07:00:18;;;;;;;2.53;2.15;;;17.80;67.30;;;;;;4889947;29;45223;-72
2023/04/18 07:02:45;;;;;;;2.78;2.03;;;17.80;67.50;;;;;;4889550;29;45480;-72
2023/04/18 07:05:11;;;;;;;2.83;2.03;;;17.80;67.70;;;;;;4889700;29;46566;-72
2023/04/18 07:07:39;;;;;;;4.03;2.50;;;17.80;68.00;;;;;;4889733;29;45229;-72
2023/04/18 07:10:10;;;;;;;4.10;2.28;;;17.90;68.20;;;;;;4890321;29;45235;-73
2023/04/18 07:12:37;;;;;;;3.22;2.33;;;17.90;68.30;;;;;;4890052;29;45423;-72
2023/04/18 07:15:04;;;;;;;2.72;2.03;;;17.90;68.20;;;;;;4889787;29;45190;-73
2023/04/18 07:17:31;;;;;;;3.00;2.08;;;17.90;68.20;;;;;;4889670;29;45219;-72
2023/04/18 07:19:58;;;;;;;4.72;2.55;;;17.90;68.20;;;;;;4889882;29;45363;-72
2023/04/18 07:22:25;;;;;;;2.70;1.90;;;17.90;68.10;;;;;;4890039;29;45178;-72
2023/04/18 07:24:52;;;;;;;3.78;2.08;;;17.90;67.90;;;;;;4889739;29;45294;-72
2023/04/18 07:27:20;;;;;;;2.20;1.88;;;17.90;67.70;;;;;;4889522;29;45165;-72
2023/04/18 07:29:47;;;;;;;3.45;2.15;;;17.90;67.70;;;;;;4889879;29;45208;-72
2023/04/18 07:32:13;;;;;;;2.90;2.05;;;17.90;67.60;;;;;;4891168;29;45400;-72
2023/04/18 07:34:40;;;;;;;4.00;2.20;;;17.90;67.60;;;;;;4892712;29;45459;-72
2023/04/18 07:37:07;;;;;;;2.75;2.20;;;17.90;67.50;;;;;;4892664;29;45090;-72
2023/04/18 07:39:35;;;;;;;3.03;2.08;;;17.90;67.20;;;;;;4893170;29;45205;-72
2023/04/18 07:42:02;;;;;;;2.45;1.98;;;17.90;67.50;;;;;;4892872;29;45305;-72
2023/04/18 07:44:30;;;;;;;2.80;1.75;;;17.90;67.30;;;;;;4895372;29;47503;-72
2023/04/18 07:46:57;;;;;;;2.40;1.83;;;17.90;67.50;;;;;;4892642;29;45706;-72
2023/04/18 07:49:24;;;;;;;2.13;1.83;;;17.90;68.00;;;;;;4892522;29;45239;-72
2023/04/18 07:51:51;;;;;;;2.22;1.70;;;17.90;68.00;;;;;;4892593;29;45436;-72
2023/04/18 07:54:17;;;;;;;3.25;1.80;;;17.90;68.00;;;;;;4892587;29;47058;-72
2023/04/18 07:56:44;;;;;;;2.47;1.75;;;17.90;68.00;;;;;;4892662;29;46049;-72
2023/04/18 07:59:11;;;;;;;2.08;1.70;;;18.00;68.20;;;;;;4892956;29;45220;-72
2023/04/18 08:01:39;;;;;;;2.35;1.73;;;18.00;68.00;;;;;;4892674;29;45122;-72
2023/04/18 08:04:06;;;;;;;1.45;1.35;;;18.00;68.20;;;;;;4892127;29;48154;-72
2023/04/18 08:06:33;;;;;;;2.90;1.60;;;18.00;68.20;;;;;;4892508;29;45247;-72
2023/04/18 08:09:03;;;;;;;2.10;1.52;;;18.00;68.20;;;;;;4892353;29;45257;-72
2023/04/18 08:11:30;;;;;;;2.63;1.83;;;18.00;67.80;;;;;;4892653;29;45565;-72
2023/04/18 08:13:57;;;;;;;2.15;1.50;;;18.00;67.70;;;;;;4892157;29;46457;-72
2023/04/18 08:16:23;;;;;;;2.25;1.30;;;18.00;67.40;;;;;;4892061;29;45539;-72
2023/04/18 08:18:52;;;;;;;1.85;1.50;;;18.00;67.50;;;;;;4892342;29;45157;-72
2023/04/18 08:21:19;;;;;;;3.63;1.70;;;17.90;67.10;;;;;;4892185;29;45445;-72
2023/04/18 08:23:46;;;;;;;1.80;1.50;;;18.00;67.30;;;;;;4891836;29;45156;-71
2023/04/18 08:26:13;;;;;;;1.92;1.40;;;17.90;67.40;;;;;;4892256;29;45314;-71
2023/04/18 08:28:40;;;;;;;1.95;1.60;;;17.90;67.10;;;;;;4892102;29;45215;-71
2023/04/18 08:31:11;;;;;;;2.20;1.50;;;17.90;67.10;;;;;;4892671;29;45072;-71
2023/04/18 08:33:37;;;;;;;1.70;1.30;;;18.00;67.30;;;;;;4891924;29;46569;-72
2023/04/18 08:36:06;;;;;;;1.60;1.20;;;18.00;67.40;;;;;;4893983;29;45177;-72
2023/04/18 08:38:33;;;;;;;2.35;1.40;;;18.00;67.50;;;;;;4891956;29;45113;-72
2023/04/18 08:41:00;;;;;;;2.78;1.42;;;18.00;67.50;;;;;;4892345;29;45370;-72
2023/04/18 08:43:29;;;;;;;1.30;1.17;;;18.00;67.50;;;;;;4891547;29;45418;-72
2023/04/18 08:45:58;;;;;;;1.73;1.48;;;18.00;67.50;;;;;;4891666;29;45430;-72
2023/04/18 08:48:26;;;;;;;1.67;1.30;;;18.00;67.50;;;;;;4892172;29;45064;-72
2023/04/18 08:50:56;;;;;;;2.80;1.30;;;18.00;67.60;;;;;;4891808;29;45578;-72
2023/04/18 08:53:25;;;;;;;2.60;1.60;;;18.00;67.30;;;;;;4891617;29;46562;-72
2023/04/18 08:55:53;;;;;;;2.08;1.50;;;18.00;68.50;;;;;;4891822;29;45463;-72
2023/04/18 08:58:22;;;;;;;2.55;1.70;;;18.00;67.20;;;;;;4891705;29;45310;-72
2023/04/18 09:00:50;;;;;;;2.47;1.80;;;18.00;67.00;;;;;;4892084;29;45291;-72
2023/04/18 09:03:33;;;;;;;2.55;1.40;;;18.00;67.10;;;;;;4891214;29;46271;-72
2023/04/18 09:06:12;;;;;;;2.67;1.58;;;18.00;67.10;;;;;;4891371;29;45192;-72
2023/04/18 09:08:42;;;;;;;2.75;1.55;;;18.00;67.00;;;;;;4891847;29;45194;-72
2023/04/18 09:11:23;;;;;;;2.22;1.60;;;18.00;67.30;;;;;;4891887;29;45536;-72
2023/04/18 09:13:50;;;;;;;3.00;1.40;;;18.00;67.00;;;;;;4891569;29;47268;-72
2023/04/18 09:16:18;;;;;;;1.73;1.52;;;18.00;67.00;;;;;;4891457;29;45258;-72
2023/04/18 09:19:09;;;;;;;2.08;1.65;;;18.00;66.80;;;;;;4891671;29;45248;-72
2023/04/18 09:21:43;;;;;;;2.08;1.52;;;18.00;67.20;;;;;;4891918;29;45369;-72
2023/04/18 09:24:22;;;;;;;1.77;1.52;;;18.00;67.30;;;;;;4891049;29;48173;-72
2023/04/18 09:26:50;;;;;;;2.13;1.40;;;18.00;67.10;;;;;;4891142;29;45087;-72
2023/04/18 09:29:17;;;;;;;1.98;1.60;;;18.00;67.40;;;;;;4894195;29;45153;-72
2023/04/18 09:32:05;;;;;;;2.13;1.60;;;18.00;67.40;;;;;;4891460;29;45616;-72
2023/04/18 09:34:32;;;;;;;1.77;1.50;;;18.00;67.50;;;;;;4884897;29;46680;-72
2023/04/18 09:37:07;;;;;;;2.13;1.15;;;18.00;67.20;;;;;;4890900;29;45242;-72
2023/04/18 09:39:37;;;;;;;2.35;1.52;;;18.00;67.10;;;;;;4891142;29;45275;-72
2023/04/18 09:42:06;;;;;;;2.53;1.73;;;18.00;66.90;;;;;;4892792;29;45171;-71
2023/04/18 09:44:33;;;;;;;2.10;1.20;;;18.00;67.00;;;;;;4891243;29;47471;-72
2023/04/18 09:47:00;;;;;;;2.30;1.50;;;18.00;66.90;;;;;;4891024;29;45130;-72
2023/04/18 09:49:28;;;;;;;2.55;1.55;;;18.00;67.10;;;;;;4890917;29;45215;-72
2023/04/18 09:51:55;;;;;;;2.15;1.50;;;18.00;66.90;;;;;;4890882;29;45179;-72
2023/04/18 09:54:24;;;;;;;2.80;1.48;;;18.00;66.60;;;;;;4889904;29;46496;-72
2023/04/18 09:56:54;;;;;;;1.80;1.50;;;18.00;66.80;;;;;;4890860;29;45159;-72
2023/04/18 09:59:33;;;;;;;1.73;1.45;;;18.00;66.90;;;;;;4890734;29;45243;-72
2023/04/18 10:02:05;;;;;;;1.40;1.30;;;18.00;67.10;;;;;;4890583;29;45300;-72
2023/04/18 10:04:33;;;;;;;1.98;1.55;;;18.00;67.50;;;;;;4890363;29;46576;-72
2023/04/18 10:07:01;;;;;;;2.45;1.70;;;18.00;67.70;;;;;;4890598;29;45235;-71
2023/04/18 10:09:32;;;;;;;2.40;1.73;;;18.00;67.40;;;;;;4890625;29;45285;-71
2023/04/18 10:12:01;;;;;;;2.97;1.70;;;18.00;67.30;;;;;;4890944;29;45409;-71
2023/04/18 10:14:29;;;;;;;2.05;1.60;;;18.00;67.30;;;;;;4890704;29;45437;-72
2023/04/18 10:16:56;;;;;;;3.08;1.50;;;18.00;67.50;;;;;;4890732;29;45260;-72
2023/04/18 10:19:24;;;;;;;3.13;1.58;;;18.00;67.30;;;;;;4891028;29;45173;-72
2023/04/18 10:21:52;;;;;;;2.45;2.00;;;18.00;67.50;;;;;;4893199;29;45088;-71
2023/04/18 10:24:48;;;;;;;2.75;1.80;;;18.00;67.40;;;;;;4890359;29;45461;-72
2023/04/18 10:27:16;;;;;;;3.72;1.92;;;18.00;67.40;;;;;;4890138;29;45259;-72
2023/04/18 10:29:48;;;;;;;3.55;1.92;;;17.90;67.30;;;;;;4890332;29;45239;-72
2023/04/18 10:32:15;;;;;;;2.33;1.80;;;18.00;67.30;;;;;;4890412;29;45223;-72
2023/04/18 10:34:42;;;;;;;2.25;1.70;;;18.00;67.40;;;;;;4890021;29;48234;-71
2023/04/18 10:37:10;;;;;;;2.22;1.80;;;18.00;67.30;;;;;;4890329;29;45170;-72
2023/04/18 10:39:50;;;;;;;2.78;2.03;;;18.00;67.30;;;;;;4890447;29;45076;-72
2023/04/18 10:42:19;;;;;;;3.97;1.77;;;18.00;67.40;;;;;;4890405;29;45405;-71
2023/04/18 10:45:21;;;;;;;2.58;1.70;;;18.00;67.40;;;;;;4890095;29;45615;-71
2023/04/18 10:47:48;;;;;;;3.08;2.10;;;18.00;67.50;;;;;;4883881;29;45331;-72
2023/04/18 10:50:16;;;;;;;2.85;1.88;;;18.00;67.30;;;;;;4890384;29;45209;-72
2023/04/18 10:52:43;;;;;;;2.55;2.08;;;18.00;67.10;;;;;;4890491;29;45207;-71
2023/04/18 10:55:18;;;;;;;3.17;2.00;;;18.00;67.00;;;;;;4889614;29;48492;-72
2023/04/18 10:57:49;;;;;;;4.93;2.17;;;18.00;66.70;;;;;;4890124;29;45212;-71
2023/04/18 11:00:17;;;;;;;2.35;1.92;;;18.00;66.80;;;;;;4890451;29;45200;-72
2023/04/18 11:02:56;;;;;;;3.20;2.00;;;18.00;66.90;;;;;;4889914;29;45731;-72
2023/04/18 11:05:25;;;;;;;3.17;2.10;;;18.10;66.90;;;;;;4890045;29;46960;-72
2023/04/18 11:07:53;;;;;;;4.20;2.08;;;18.10;66.80;;;;;;4893420;29;45125;-72
2023/04/18 11:10:22;;;;;;;2.35;1.88;;;18.10;66.60;;;;;;4893234;29;45237;-71
2023/04/18 11:12:51;;;;;;;2.58;1.90;;;18.10;66.50;;;;;;4895752;29;45457;-71
2023/04/18 11:15:20;;;;;;;2.92;2.00;;;18.00;66.30;;;;;;4893890;29;45239;-71
2023/04/18 11:17:55;;;;;;;2.88;1.63;;;18.10;66.30;;;;;;4893481;29;45288;-71
2023/04/18 11:20:22;;;;;;;3.38;2.30;;;18.10;66.40;;;;;;4893400;29;45200;-73
2023/04/18 11:22:51;;;;;;;2.33;1.80;;;18.10;66.60;;;;;;4893374;29;45501;-71
2023/04/18 11:25:21;;;;;;;3.90;2.03;;;18.00;66.40;;;;;;4892889;29;47485;-72
2023/04/18 11:27:50;;;;;;;2.75;2.03;;;18.00;66.30;;;;;;4892782;29;45273;-72
2023/04/18 11:30:17;;;;;;;2.80;2.00;;;18.00;66.40;;;;;;4893178;29;45391;-72
2023/04/18 11:32:44;;;;;;;3.90;2.00;;;18.00;66.50;;;;;;4893179;29;45517;-72
2023/04/18 11:35:13;;;;;;;3.38;2.20;;;18.00;66.60;;;;;;4892247;29;46350;-71
2023/04/18 11:37:40;;;;;;;2.70;2.00;;;18.00;67.30;;;;;;4892667;29;45239;-72
2023/04/18 11:40:09;;;;;;;2.50;2.00;;;18.10;66.80;;;;;;4892801;29;45287;-72
2023/04/18 11:42:39;;;;;;;3.03;1.98;;;18.10;67.20;;;;;;4892809;29;45462;-72
2023/04/18 11:45:11;;;;;;;3.42;1.92;;;18.10;67.20;;;;;;4892550;29;47224;-72
2023/04/18 11:47:40;;;;;;;3.35;2.00;;;18.10;67.20;;;;;;4890193;29;45226;-72
2023/04/18 11:50:09;;;;;;;3.15;1.95;;;18.10;67.20;;;;;;4893028;29;45055;-72
2023/04/18 11:52:37;;;;;;;2.00;1.67;;;18.10;67.10;;;;;;4892769;29;45549;-72
2023/04/18 11:55:16;;;;;;;3.15;2.22;;;18.10;67.10;;;;;;4892474;29;46509;-72
2023/04/18 11:57:49;;;;;;;3.70;2.10;;;18.10;67.00;;;;;;4892822;29;45197;-72
2023/04/18 12:00:20;;;;;;;3.28;1.98;;;18.10;67.10;;;;;;4892769;29;45243;-72
2023/04/18 12:02:49;;;;;;;2.17;1.85;;;18.10;67.00;;;;;;4892253;29;45218;-72
2023/04/18 12:05:25;;;;;;;3.15;2.20;;;18.10;67.10;;;;;;4894605;29;47618;-72
2023/04/18 12:07:52;;;;;;;3.97;2.03;;;18.10;67.20;;;;;;4892491;29;45104;-71
2023/04/18 12:10:28;;;;;;;2.90;2.10;;;18.10;67.00;;;;;;4892300;29;45131;-71
2023/04/18 12:12:57;;;;;;;3.05;2.17;;;18.10;66.90;;;;;;4893013;29;45228;-71
2023/04/18 12:15:26;;;;;;;5.40;2.05;;;18.10;67.10;;;;;;4892130;29;47490;-72
2023/04/18 12:17:58;;;;;;;3.95;2.10;;;18.10;67.00;;;;;;4891439;29;45232;-71
2023/04/18 12:20:25;;;;;;;2.92;2.00;;;18.10;67.30;;;;;;4892400;29;45180;-71
2023/04/18 12:22:53;;;;;;;4.55;2.10;;;18.10;67.20;;;;;;4892476;29;45114;-71
2023/04/18 12:25:22;;;;;;;2.35;1.65;;;18.10;67.00;;;;;;4892168;29;45549;-71
2023/04/18 12:27:50;;;;;;;3.17;1.88;;;18.10;67.20;;;;;;4891935;29;46065;-72
2023/04/18 12:30:20;;;;;;;4.32;2.38;;;18.10;67.00;;;;;;4892158;29;45113;-71
2023/04/18 12:32:49;;;;;;;2.58;1.98;;;18.10;67.20;;;;;;4892589;29;45152;-72
2023/04/18 12:35:17;;;;;;;2.85;2.13;;;18.10;67.00;;;;;;4892208;29;45420;-71
2023/04/18 12:37:44;;;;;;;2.88;2.10;;;18.10;67.10;;;;;;4891921;29;45145;-71
2023/04/18 12:40:13;;;;;;;4.50;2.15;;;18.10;66.80;;;;;;4891845;29;45316;-71
2023/04/18 12:42:40;;;;;;;2.88;2.22;;;18.10;66.80;;;;;;4892036;29;45145;-71
2023/04/18 12:45:09;;;;;;;3.03;2.22;;;18.10;66.80;;;;;;4891990;29;47703;-71
2023/04/18 12:47:38;;;;;;;3.28;2.20;;;18.10;66.90;;;;;;4891882;29;45199;-71
2023/04/18 12:50:08;;;;;;;3.63;2.10;;;18.10;66.80;;;;;;4891867;29;45148;-72
2023/04/18 12:52:38;;;;;;;3.33;2.05;;;18.10;66.80;;;;;;4891901;29;45212;-71